sensor_id;sensor_type;location;lat;lon;timestamp;pressure;altitude;pressure_sealevel;temperature
54026;BMP280;74404;50.662;3.398;2024-02-04T00:01:41;102031.91;;;10.04
54026;BMP280;74404;50.662;3.398;2024-02-04T00:04:08;102032.94;;;10.03
54026;BMP280;74404;50.662;3.398;2024-02-04T00:06:33;102033.22;;;10.06
54026;BMP280;74404;50.662;3.398;2024-02-04T00:08:59;102025.50;;;10.05
54026;BMP280;74404;50.662;3.398;2024-02-04T00:11:24;102037.72;;;10.06
54026;BMP280;74404;50.662;3.398;2024-02-04T00:13:50;102029.78;;;10.06
54026;BMP280;74404;50.662;3.398;2024-02-04T00:16:16;102035.06;;;10.06
54026;BMP280;74404;50.662;3.398;2024-02-04T00:18:41;102031.31;;;10.01
54026;BMP280;74404;50.662;3.398;2024-02-04T00:21:07;102034.25;;;10.05
54026;BMP280;74404;50.662;3.398;2024-02-04T00:23:32;102032.44;;;10.06
54026;BMP280;74404;50.662;3.398;2024-02-04T00:25:58;102034.00;;;10.07
54026;BMP280;74404;50.662;3.398;2024-02-04T00:28:23;102023.97;;;10.09
54026;BMP280;74404;50.662;3.398;2024-02-04T00:30:49;102032.19;;;10.07
54026;BMP280;74404;50.662;3.398;2024-02-04T00:33:15;102031.13;;;10.08
54026;BMP280;74404;50.662;3.398;2024-02-04T00:35:41;102026.06;;;10.07
54026;BMP280;74404;50.662;3.398;2024-02-04T00:38:07;102021.56;;;10.07
54026;BMP280;74404;50.662;3.398;2024-02-04T00:40:34;102016.03;;;10.09
54026;BMP280;74404;50.662;3.398;2024-02-04T00:42:59;102016.81;;;10.09
54026;BMP280;74404;50.662;3.398;2024-02-04T00:45:25;102032.72;;;10.09
54026;BMP280;74404;50.662;3.398;2024-02-04T00:47:51;102020.00;;;10.11
54026;BMP280;74404;50.662;3.398;2024-02-04T00:50:16;102029.84;;;10.11
54026;BMP280;74404;50.662;3.398;2024-02-04T00:52:41;102021.56;;;10.07
54026;BMP280;74404;50.662;3.398;2024-02-04T00:55:07;102014.94;;;10.10
54026;BMP280;74404;50.662;3.398;2024-02-04T00:57:33;102018.19;;;10.12
54026;BMP280;74404;50.662;3.398;2024-02-04T00:59:58;102007.56;;;10.12
54026;BMP280;74404;50.662;3.398;2024-02-04T01:02:24;102010.47;;;10.10
54026;BMP280;74404;50.662;3.398;2024-02-04T01:04:49;102005.72;;;10.12
54026;BMP280;74404;50.662;3.398;2024-02-04T01:07:16;101990.56;;;10.13
54026;BMP280;74404;50.662;3.398;2024-02-04T01:09:42;101988.41;;;10.10
54026;BMP280;74404;50.662;3.398;2024-02-04T01:12:07;101987.66;;;10.14
54026;BMP280;74404;50.662;3.398;2024-02-04T01:14:33;102001.19;;;10.13
54026;BMP280;74404;50.662;3.398;2024-02-04T01:16:58;101991.91;;;10.15
54026;BMP280;74404;50.662;3.398;2024-02-04T01:19:24;101995.09;;;10.12
54026;BMP280;74404;50.662;3.398;2024-02-04T01:21:49;101990.56;;;10.13
54026;BMP280;74404;50.662;3.398;2024-02-04T01:24:15;101994.56;;;10.15
54026;BMP280;74404;50.662;3.398;2024-02-04T01:26:40;101990.56;;;10.13
54026;BMP280;74404;50.662;3.398;2024-02-04T01:29:06;101999.88;;;10.15
54026;BMP280;74404;50.662;3.398;2024-02-04T01:31:31;101987.66;;;10.14
54026;BMP280;74404;50.662;3.398;2024-02-04T01:33:57;102001.19;;;10.13
54026;BMP280;74404;50.662;3.398;2024-02-04T01:36:22;101989.25;;;10.15
54026;BMP280;74404;50.662;3.398;2024-02-04T01:38:47;101987.41;;;10.16
54026;BMP280;74404;50.662;3.398;2024-02-04T01:41:13;101993.75;;;10.15
54026;BMP280;74404;50.662;3.398;2024-02-04T01:43:38;101991.66;;;10.12
54026;BMP280;74404;50.662;3.398;2024-02-04T01:46:04;101997.22;;;10.15
54026;BMP280;74404;50.662;3.398;2024-02-04T01:48:30;101979.16;;;10.12
54026;BMP280;74404;50.662;3.398;2024-02-04T01:50:57;101986.59;;;10.15
54026;BMP280;74404;50.662;3.398;2024-02-04T01:53:26;101982.84;;;10.11
54026;BMP280;74404;50.662;3.398;2024-02-04T01:55:51;101993.47;;;10.11
54026;BMP280;74404;50.662;3.398;2024-02-04T01:58:17;101990.81;;;10.11
54026;BMP280;74404;50.662;3.398;2024-02-04T02:00:43;101983.38;;;10.13
54026;BMP280;74404;50.662;3.398;2024-02-04T02:03:11;101993.75;;;10.15
54026;BMP280;74404;50.662;3.398;2024-02-04T02:05:37;101987.94;;;10.13
54026;BMP280;74404;50.662;3.398;2024-02-04T02:08:03;101983.38;;;10.13
54026;BMP280;74404;50.662;3.398;2024-02-04T02:10:29;101986.03;;;10.13
54026;BMP280;74404;50.662;3.398;2024-02-04T02:13:31;101978.66;;;10.15
54026;BMP280;74404;50.662;3.398;2024-02-04T02:16:23;101979.44;;;10.16
54026;BMP280;74404;50.662;3.398;2024-02-04T02:18:52;101980.00;;;10.18
54026;BMP280;74404;50.662;3.398;2024-02-04T02:21:36;101979.44;;;10.16
54026;BMP280;74404;50.662;3.398;2024-02-04T02:24:28;101984.75;;;10.16
54026;BMP280;74404;50.662;3.398;2024-02-04T02:26:53;101988.44;;;10.15
54026;BMP280;74404;50.662;3.398;2024-02-04T02:29:22;101987.94;;;10.18
54026;BMP280;74404;50.662;3.398;2024-02-04T02:31:47;101990.06;;;10.16
54026;BMP280;74404;50.662;3.398;2024-02-04T02:34:13;101996.66;;;10.13
54026;BMP280;74404;50.662;3.398;2024-02-04T02:36:45;102007.34;;;10.18
54026;BMP280;74404;50.662;3.398;2024-02-04T02:40:09;101989.25;;;10.15
54026;BMP280;74404;50.662;3.398;2024-02-04T02:42:38;101981.31;;;10.15
54026;BMP280;74404;50.662;3.398;2024-02-04T02:45:06;101977.34;;;10.18
54026;BMP280;74404;50.662;3.398;2024-02-04T02:47:32;101977.09;;;10.19
54026;BMP280;74404;50.662;3.398;2024-02-04T02:49:58;101978.69;;;10.20
54026;BMP280;74404;50.662;3.398;2024-02-04T02:52:25;101973.66;;;10.19
54026;BMP280;74404;50.662;3.398;2024-02-04T02:54:50;101971.47;;;10.16
54026;BMP280;74404;50.662;3.398;2024-02-04T02:57:16;101969.63;;;10.16
54026;BMP280;74404;50.662;3.398;2024-02-04T02:59:42;101962.69;;;10.10
54026;BMP280;74404;50.662;3.398;2024-02-04T03:02:07;101972.53;;;10.15
54026;BMP280;74404;50.662;3.398;2024-02-04T03:04:33;101966.69;;;10.13
54026;BMP280;74404;50.662;3.398;2024-02-04T03:06:59;101968.81;;;10.16
54026;BMP280;74404;50.662;3.398;2024-02-04T03:09:25;101961.41;;;10.18
54026;BMP280;74404;50.662;3.398;2024-02-04T03:11:50;101962.25;;;10.18
54026;BMP280;74404;50.662;3.398;2024-02-04T03:14:17;101964.88;;;10.18
54026;BMP280;74404;50.662;3.398;2024-02-04T03:16:45;101956.59;;;10.15
54026;BMP280;74404;50.662;3.398;2024-02-04T03:19:11;101968.59;;;10.17
54026;BMP280;74404;50.662;3.398;2024-02-04T03:21:36;101963.03;;;10.19
54026;BMP280;74404;50.662;3.398;2024-02-04T03:24:02;101949.47;;;10.15
54026;BMP280;74404;50.662;3.398;2024-02-04T03:26:27;101950.25;;;10.16
54026;BMP280;74404;50.662;3.398;2024-02-04T03:28:52;101955.63;;;10.21
54026;BMP280;74404;50.662;3.398;2024-02-04T03:31:22;101961.41;;;10.18
54026;BMP280;74404;50.662;3.398;2024-02-04T03:33:48;101955.84;;;10.19
54026;BMP280;74404;50.662;3.398;2024-02-04T03:36:24;101943.38;;;10.20
54026;BMP280;74404;50.662;3.398;2024-02-04T03:38:52;101954.28;;;10.18
54026;BMP280;74404;50.662;3.398;2024-02-04T03:41:18;101954.81;;;10.20
54026;BMP280;74404;50.662;3.398;2024-02-04T03:43:44;101958.50;;;10.19
54026;BMP280;74404;50.662;3.398;2024-02-04T03:46:13;101963.56;;;10.21
54026;BMP280;74404;50.662;3.398;2024-02-04T03:48:39;101971.00;;;10.19
54026;BMP280;74404;50.662;3.398;2024-02-04T03:51:05;101956.66;;;10.20
54026;BMP280;74404;50.662;3.398;2024-02-04T03:53:30;101961.16;;;10.19
54026;BMP280;74404;50.662;3.398;2024-02-04T03:55:56;101956.94;;;10.18
54026;BMP280;74404;50.662;3.398;2024-02-04T03:58:22;101959.31;;;10.20
54026;BMP280;74404;50.662;3.398;2024-02-04T04:00:55;101951.63;;;10.18
54026;BMP280;74404;50.662;3.398;2024-02-04T04:03:21;101948.16;;;10.18
54026;BMP280;74404;50.662;3.398;2024-02-04T04:05:46;101947.59;;;10.16
54026;BMP280;74404;50.662;3.398;2024-02-04T04:08:12;101938.59;;;10.17
54026;BMP280;74404;50.662;3.398;2024-02-04T04:10:38;101944.41;;;10.14
54026;BMP280;74404;50.662;3.398;2024-02-04T04:13:03;101946.56;;;10.17
54026;BMP280;74404;50.662;3.398;2024-02-04T04:15:29;101960.88;;;10.16
54026;BMP280;74404;50.662;3.398;2024-02-04T04:17:54;101943.09;;;10.16
54026;BMP280;74404;50.662;3.398;2024-02-04T04:20:20;101953.94;;;10.15
54026;BMP280;74404;50.662;3.398;2024-02-04T04:22:45;101952.41;;;10.19
54026;BMP280;74404;50.662;3.398;2024-02-04T04:25:10;101949.75;;;10.19
54026;BMP280;74404;50.662;3.398;2024-02-04T04:27:36;101944.94;;;10.16
54026;BMP280;74404;50.662;3.398;2024-02-04T04:30:01;101952.66;;;10.17
54026;BMP280;74404;50.662;3.398;2024-02-04T04:32:27;101947.09;;;10.19
54026;BMP280;74404;50.662;3.398;2024-02-04T04:34:52;101944.94;;;10.16
54026;BMP280;74404;50.662;3.398;2024-02-04T04:37:20;101944.16;;;10.15
54026;BMP280;74404;50.662;3.398;2024-02-04T04:39:46;101935.94;;;10.17
54026;BMP280;74404;50.662;3.398;2024-02-04T04:42:11;101920.81;;;10.17
54026;BMP280;74404;50.662;3.398;2024-02-04T04:44:36;101920.03;;;10.22
54026;BMP280;74404;50.662;3.398;2024-02-04T04:47:02;101924.25;;;10.18
54026;BMP280;74404;50.662;3.398;2024-02-04T04:49:27;101931.44;;;10.17
54026;BMP280;74404;50.662;3.398;2024-02-04T04:51:53;101924.81;;;10.20
54026;BMP280;74404;50.662;3.398;2024-02-04T04:54:18;101922.94;;;10.15
54026;BMP280;74404;50.662;3.398;2024-02-04T04:56:44;101927.97;;;10.17
54026;BMP280;74404;50.662;3.398;2024-02-04T04:59:09;101939.94;;;10.19
54026;BMP280;74404;50.662;3.398;2024-02-04T05:01:35;101929.56;;;10.18
54026;BMP280;74404;50.662;3.398;2024-02-04T05:04:00;101929.31;;;10.19
54026;BMP280;74404;50.662;3.398;2024-02-04T05:06:26;101929.56;;;10.18
54026;BMP280;74404;50.662;3.398;2024-02-04T05:08:52;101929.81;;;10.16
54026;BMP280;74404;50.662;3.398;2024-02-04T05:11:17;101939.63;;;10.16
54026;BMP280;74404;50.662;3.398;2024-02-04T05:13:43;101927.75;;;10.18
54026;BMP280;74404;50.662;3.398;2024-02-04T05:16:08;101929.56;;;10.18
54026;BMP280;74404;50.662;3.398;2024-02-04T05:18:33;101926.91;;;10.18
54026;BMP280;74404;50.662;3.398;2024-02-04T05:21:01;101935.69;;;10.18
54026;BMP280;74404;50.662;3.398;2024-02-04T05:23:27;101924.25;;;10.18
54026;BMP280;74404;50.662;3.398;2024-02-04T05:25:52;101943.66;;;10.18
54026;BMP280;74404;50.662;3.398;2024-02-04T05:28:18;101951.03;;;10.16
54026;BMP280;74404;50.662;3.398;2024-02-04T05:30:43;101951.53;;;10.13
54026;BMP280;74404;50.662;3.398;2024-02-04T05:33:09;101939.88;;;10.14
54026;BMP280;74404;50.662;3.398;2024-02-04T05:35:38;101949.22;;;10.17
54026;BMP280;74404;50.662;3.398;2024-02-04T05:38:05;101946.53;;;10.12
54026;BMP280;74404;50.662;3.398;2024-02-04T05:40:31;101954.19;;;10.13
54026;BMP280;74404;50.662;3.398;2024-02-04T05:42:57;101940.44;;;10.16
54026;BMP280;74404;50.662;3.398;2024-02-04T05:45:22;101940.44;;;10.16
54026;BMP280;74404;50.662;3.398;2024-02-04T05:47:47;101935.38;;;10.15
54026;BMP280;74404;50.662;3.398;2024-02-04T05:50:13;101938.59;;;10.17
54026;BMP280;74404;50.662;3.398;2024-02-04T05:52:38;101941.00;;;10.18
54026;BMP280;74404;50.662;3.398;2024-02-04T05:55:04;101946.31;;;10.18
54026;BMP280;74404;50.662;3.398;2024-02-04T05:57:30;101940.19;;;10.18
54026;BMP280;74404;50.662;3.398;2024-02-04T05:59:55;101938.34;;;10.18
54026;BMP280;74404;50.662;3.398;2024-02-04T06:02:21;101922.69;;;10.17
54026;BMP280;74404;50.662;3.398;2024-02-04T06:04:46;101935.69;;;10.18
54026;BMP280;74404;50.662;3.398;2024-02-04T06:07:13;101936.44;;;10.14
54026;BMP280;74404;50.662;3.398;2024-02-04T06:09:39;101934.31;;;10.16
54026;BMP280;74404;50.662;3.398;2024-02-04T06:12:04;101935.13;;;10.16
54026;BMP280;74404;50.662;3.398;2024-02-04T06:14:33;101925.09;;;10.18
54026;BMP280;74404;50.662;3.398;2024-02-04T06:17:00;101930.13;;;10.20
54026;BMP280;74404;50.662;3.398;2024-02-04T06:19:25;101925.34;;;10.17
54026;BMP280;74404;50.662;3.398;2024-02-04T06:21:50;101908.25;;;10.08
54026;BMP280;74404;50.662;3.398;2024-02-04T06:24:16;101926.63;;;10.14
54026;BMP280;74404;50.662;3.398;2024-02-04T06:26:41;101916.78;;;10.15
54026;BMP280;74404;50.662;3.398;2024-02-04T06:29:07;101921.84;;;10.16
54026;BMP280;74404;50.662;3.398;2024-02-04T06:31:32;101923.72;;;10.16
54026;BMP280;74404;50.662;3.398;2024-02-04T06:33:58;101918.41;;;10.16
54026;BMP280;74404;50.662;3.398;2024-02-04T06:36:23;101915.22;;;10.14
54026;BMP280;74404;50.662;3.398;2024-02-04T06:38:49;101916.53;;;10.16
54026;BMP280;74404;50.662;3.398;2024-02-04T06:41:14;101934.09;;;10.17
54026;BMP280;74404;50.662;3.398;2024-02-04T06:43:40;101922.69;;;10.17
54026;BMP280;74404;50.662;3.398;2024-02-04T06:46:05;101920.50;;;10.14
54026;BMP280;74404;50.662;3.398;2024-02-04T06:48:31;101934.06;;;10.12
54026;BMP280;74404;50.662;3.398;2024-02-04T06:50:56;101927.13;;;10.11
54026;BMP280;74404;50.662;3.398;2024-02-04T06:53:22;101917.03;;;10.13
54026;BMP280;74404;50.662;3.398;2024-02-04T06:55:47;101918.13;;;10.12
54026;BMP280;74404;50.662;3.398;2024-02-04T06:58:13;101919.19;;;10.16
54026;BMP280;74404;50.662;3.398;2024-02-04T07:00:39;101933.28;;;10.17
54026;BMP280;74404;50.662;3.398;2024-02-04T07:03:05;101926.88;;;10.13
54026;BMP280;74404;50.662;3.398;2024-02-04T07:05:31;101928.75;;;10.12
54026;BMP280;74404;50.662;3.398;2024-02-04T07:07:59;101922.09;;;10.15
54026;BMP280;74404;50.662;3.398;2024-02-04T07:10:24;101920.50;;;10.14
54026;BMP280;74404;50.662;3.398;2024-02-04T07:12:50;101938.59;;;10.17
54026;BMP280;74404;50.662;3.398;2024-02-04T07:15:15;101922.94;;;10.15
54026;BMP280;74404;50.662;3.398;2024-02-04T07:17:41;101919.19;;;10.16
54026;BMP280;74404;50.662;3.398;2024-02-04T07:20:07;101934.88;;;10.18
54026;BMP280;74404;50.662;3.398;2024-02-04T07:22:32;101932.19;;;10.13
54026;BMP280;74404;50.662;3.398;2024-02-04T07:25:00;101932.72;;;10.15
54026;BMP280;74404;50.662;3.398;2024-02-04T07:27:26;101922.94;;;10.15
54026;BMP280;74404;50.662;3.398;2024-02-04T07:29:51;101929.81;;;10.16
54026;BMP280;74404;50.662;3.398;2024-02-04T07:32:17;101929.53;;;10.13
54026;BMP280;74404;50.662;3.398;2024-02-04T07:34:42;101925.81;;;10.14
54026;BMP280;74404;50.662;3.398;2024-02-04T07:37:07;101935.63;;;10.13
54026;BMP280;74404;50.662;3.398;2024-02-04T07:39:33;101927.97;;;10.12
54026;BMP280;74404;50.662;3.398;2024-02-04T07:41:58;101937.75;;;10.11
54026;BMP280;74404;50.662;3.398;2024-02-04T07:44:28;101933.50;;;10.10
54026;BMP280;74404;50.662;3.398;2024-02-04T07:46:54;101931.91;;;10.14
54026;BMP280;74404;50.662;3.398;2024-02-04T07:49:19;101928.22;;;10.15
54026;BMP280;74404;50.662;3.398;2024-02-04T07:51:45;101939.09;;;10.14
54026;BMP280;74404;50.662;3.398;2024-02-04T07:54:10;101947.84;;;10.14
54026;BMP280;74404;50.662;3.398;2024-02-04T07:56:36;101920.78;;;10.12
54026;BMP280;74404;50.662;3.398;2024-02-04T07:59:02;101925.31;;;10.12
54026;BMP280;74404;50.662;3.398;2024-02-04T08:01:29;101932.44;;;10.11
54026;BMP280;74404;50.662;3.398;2024-02-04T08:03:54;101921.84;;;10.11
54026;BMP280;74404;50.662;3.398;2024-02-04T08:06:20;101915.19;;;10.09
54026;BMP280;74404;50.662;3.398;2024-02-04T08:08:45;101915.50;;;10.12
54026;BMP280;74404;50.662;3.398;2024-02-04T08:11:16;101913.88;;;10.11
54026;BMP280;74404;50.662;3.398;2024-02-04T08:13:42;101909.91;;;10.14
54026;BMP280;74404;50.662;3.398;2024-02-04T08:16:08;101906.19;;;10.15
54026;BMP280;74404;50.662;3.398;2024-02-04T08:18:33;101907.00;;;10.15
54026;BMP280;74404;50.662;3.398;2024-02-04T08:20:59;101902.47;;;10.16
54026;BMP280;74404;50.662;3.398;2024-02-04T08:23:24;101893.72;;;10.15
54026;BMP280;74404;50.662;3.398;2024-02-04T08:25:49;101903.78;;;10.13
54026;BMP280;74404;50.662;3.398;2024-02-04T08:28:15;101903.28;;;10.16
54026;BMP280;74404;50.662;3.398;2024-02-04T08:30:40;101922.94;;;10.15
54026;BMP280;74404;50.662;3.398;2024-02-04T08:33:06;101903.78;;;10.13
54026;BMP280;74404;50.662;3.398;2024-02-04T08:35:32;101899.28;;;10.14
54026;BMP280;74404;50.662;3.398;2024-02-04T08:37:58;101907.25;;;10.14
54026;BMP280;74404;50.662;3.398;2024-02-04T08:40:23;101896.63;;;10.09
54026;BMP280;74404;50.662;3.398;2024-02-04T08:42:48;101907.53;;;10.12
54026;BMP280;74404;50.662;3.398;2024-02-04T08:45:14;101930.06;;;10.15
54026;BMP280;74404;50.662;3.398;2024-02-04T08:47:39;101920.25;;;10.15
54026;BMP280;74404;50.662;3.398;2024-02-04T08:50:06;101927.16;;;10.16
54026;BMP280;74404;50.662;3.398;2024-02-04T08:52:31;101929.03;;;10.16
54026;BMP280;74404;50.662;3.398;2024-02-04T08:54:57;101945.97;;;10.15
54026;BMP280;74404;50.662;3.398;2024-02-04T08:57:23;101933.53;;;10.15
54026;BMP280;74404;50.662;3.398;2024-02-04T08:59:49;101935.13;;;10.16
54026;BMP280;74404;50.662;3.398;2024-02-04T09:02:14;101930.06;;;10.15
54026;BMP280;74404;50.662;3.398;2024-02-04T09:04:40;101932.19;;;10.13
54026;BMP280;74404;50.662;3.398;2024-02-04T09:07:09;101932.22;;;10.18
54026;BMP280;74404;50.662;3.398;2024-02-04T09:09:35;101929.81;;;10.16
54026;BMP280;74404;50.662;3.398;2024-02-04T09:12:01;101934.88;;;10.18
54026;BMP280;74404;50.662;3.398;2024-02-04T09:14:26;101939.63;;;10.16
54026;BMP280;74404;50.662;3.398;2024-02-04T09:16:52;101933.28;;;10.17
54026;BMP280;74404;50.662;3.398;2024-02-04T09:19:17;101936.97;;;10.16
54026;BMP280;74404;50.662;3.398;2024-02-04T09:21:42;101929.28;;;10.14
54026;BMP280;74404;50.662;3.398;2024-02-04T09:24:09;101941.75;;;10.14
54026;BMP280;74404;50.662;3.398;2024-02-04T09:26:34;101936.19;;;10.15
54026;BMP280;74404;50.662;3.398;2024-02-04T09:29:00;101927.97;;;10.17
54026;BMP280;74404;50.662;3.398;2024-02-04T09:31:25;101929.81;;;10.16
54026;BMP280;74404;50.662;3.398;2024-02-04T09:33:51;101926.13;;;10.17
54026;BMP280;74404;50.662;3.398;2024-02-04T09:36:16;101941.56;;;10.20
54026;BMP280;74404;50.662;3.398;2024-02-04T09:38:42;101942.59;;;10.19
54026;BMP280;74404;50.662;3.398;2024-02-04T09:41:07;101935.47;;;10.25
54026;BMP280;74404;50.662;3.398;2024-02-04T09:43:34;101942.06;;;10.23
54026;BMP280;74404;50.662;3.398;2024-02-04T09:46:00;101938.34;;;10.18
54026;BMP280;74404;50.662;3.398;2024-02-04T09:48:30;101941.00;;;10.18
54026;BMP280;74404;50.662;3.398;2024-02-04T09:50:57;101925.09;;;10.18
54026;BMP280;74404;50.662;3.398;2024-02-04T09:53:32;101924.81;;;10.20
54026;BMP280;74404;50.662;3.398;2024-02-04T09:55:58;101932.53;;;10.21
54026;BMP280;74404;50.662;3.398;2024-02-04T09:58:24;101925.34;;;10.22
54026;BMP280;74404;50.662;3.398;2024-02-04T10:00:50;101925.34;;;10.22
54026;BMP280;74404;50.662;3.398;2024-02-04T10:03:16;101919.50;;;10.20
54026;BMP280;74404;50.662;3.398;2024-02-04T10:05:42;101940.47;;;10.21
54026;BMP280;74404;50.662;3.398;2024-02-04T10:08:07;101920.31;;;10.20
54026;BMP280;74404;50.662;3.398;2024-02-04T10:10:33;101925.63;;;10.20
54026;BMP280;74404;50.662;3.398;2024-02-04T10:12:58;101922.97;;;10.20
54026;BMP280;74404;50.662;3.398;2024-02-04T10:15:30;101926.16;;;10.23
54026;BMP280;74404;50.662;3.398;2024-02-04T10:17:55;101922.16;;;10.20
54026;BMP280;74404;50.662;3.398;2024-02-04T10:20:21;101909.72;;;10.20
54026;BMP280;74404;50.662;3.398;2024-02-04T10:22:47;101935.41;;;10.20
54026;BMP280;74404;50.662;3.398;2024-02-04T10:25:14;101907.38;;;10.29
54026;BMP280;74404;50.662;3.398;2024-02-04T10:27:42;101913.81;;;10.38
54026;BMP280;74404;50.662;3.398;2024-02-04T10:30:08;101928.63;;;10.39
54026;BMP280;74404;50.662;3.398;2024-02-04T10:32:34;101914.84;;;10.37
54026;BMP280;74404;50.662;3.398;2024-02-04T10:35:00;101929.44;;;10.35
54026;BMP280;74404;50.662;3.398;2024-02-04T10:37:27;101926.78;;;10.35
54026;BMP280;74404;50.662;3.398;2024-02-04T10:39:52;101931.28;;;10.34
54026;BMP280;74404;50.662;3.398;2024-02-04T10:42:26;101941.88;;;10.34
54026;BMP280;74404;50.662;3.398;2024-02-04T10:44:55;101944.53;;;10.34
54026;BMP280;74404;50.662;3.398;2024-02-04T10:47:26;101942.72;;;10.35
54026;BMP280;74404;50.662;3.398;2024-02-04T10:49:58;101953.34;;;10.35
54026;BMP280;74404;50.662;3.398;2024-02-04T10:52:27;101948.81;;;10.35
54026;BMP280;74404;50.662;3.398;2024-02-04T10:54:53;101953.56;;;10.33
54026;BMP280;74404;50.662;3.398;2024-02-04T10:57:22;101954.13;;;10.35
54026;BMP280;74404;50.662;3.398;2024-02-04T10:59:56;101944.53;;;10.34
54026;BMP280;74404;50.662;3.398;2024-02-04T11:02:23;101930.22;;;10.35
54026;BMP280;74404;50.662;3.398;2024-02-04T11:04:49;101925.19;;;10.39
54026;BMP280;74404;50.662;3.398;2024-02-04T11:07:15;101933.75;;;10.46
54026;BMP280;74404;50.662;3.398;2024-02-04T11:09:45;101921.53;;;10.45
54026;BMP280;74404;50.662;3.398;2024-02-04T11:12:14;101923.06;;;10.41
54026;BMP280;74404;50.662;3.398;2024-02-04T11:14:44;101907.41;;;10.39
54026;BMP280;74404;50.662;3.398;2024-02-04T11:17:30;101910.06;;;10.39
54026;BMP280;74404;50.662;3.398;2024-02-04T11:28:15;101927.34;;;10.42
54026;BMP280;74404;50.662;3.398;2024-02-04T11:30:42;101911.91;;;10.39
54026;BMP280;74404;50.662;3.398;2024-02-04T11:33:11;101915.94;;;10.41
54026;BMP280;74404;50.662;3.398;2024-02-04T11:35:37;101937.44;;;10.40
54026;BMP280;74404;50.662;3.398;2024-02-04T11:38:03;101913.53;;;10.40
54026;BMP280;74404;50.662;3.398;2024-02-04T11:40:39;101929.50;;;10.45
54026;BMP280;74404;50.662;3.398;2024-02-04T11:45:30;101924.22;;;10.50
54026;BMP280;74404;50.662;3.398;2024-02-04T11:48:02;101921.00;;;10.48
54026;BMP280;74404;50.662;3.398;2024-02-04T11:50:30;101919.41;;;10.47
54026;BMP280;74404;50.662;3.398;2024-02-04T11:53:05;101910.69;;;10.52
54026;BMP280;74404;50.662;3.398;2024-02-04T11:55:31;101909.56;;;10.48
54026;BMP280;74404;50.662;3.398;2024-02-04T11:57:59;101911.44;;;10.47
54026;BMP280;74404;50.662;3.398;2024-02-04T12:00:25;101911.97;;;10.44
54026;BMP280;74404;50.662;3.398;2024-02-04T12:03:04;101909.31;;;10.44
54026;BMP280;74404;50.662;3.398;2024-02-04T12:05:37;101898.94;;;10.43
54026;BMP280;74404;50.662;3.398;2024-02-04T12:08:06;101889.38;;;10.41
54026;BMP280;74404;50.662;3.398;2024-02-04T12:10:34;101886.47;;;10.43
54026;BMP280;74404;50.662;3.398;2024-02-04T12:13:04;101890.78;;;10.54
54026;BMP280;74404;50.662;3.398;2024-02-04T12:15:31;101883.59;;;10.50
54026;BMP280;74404;50.662;3.398;2024-02-04T12:18:10;101881.47;;;10.47
54026;BMP280;74404;50.662;3.398;2024-02-04T12:20:36;101878.00;;;10.46
54026;BMP280;74404;50.662;3.398;2024-02-04T12:23:03;101882.22;;;10.47
54026;BMP280;74404;50.662;3.398;2024-02-04T12:25:30;101881.47;;;10.47
54026;BMP280;74404;50.662;3.398;2024-02-04T12:27:58;101870.56;;;10.43
54026;BMP280;74404;50.662;3.398;2024-02-04T12:30:24;101880.34;;;10.43
54026;BMP280;74404;50.662;3.398;2024-02-04T12:32:56;101876.66;;;10.44
54026;BMP280;74404;50.662;3.398;2024-02-04T12:35:22;101874.53;;;10.46
54026;BMP280;74404;50.662;3.398;2024-02-04T12:37:55;101870.84;;;10.47
54026;BMP280;74404;50.662;3.398;2024-02-04T12:40:25;101878.53;;;10.48
54026;BMP280;74404;50.662;3.398;2024-02-04T12:43:00;101872.97;;;10.50
54026;BMP280;74404;50.662;3.398;2024-02-04T12:45:30;101879.06;;;10.50
54026;BMP280;74404;50.662;3.398;2024-02-04T12:47:57;101879.31;;;10.49
54026;BMP280;74404;50.662;3.398;2024-02-04T12:50:24;101876.91;;;10.47
54026;BMP280;74404;50.662;3.398;2024-02-04T12:53:10;101874.25;;;10.47
54026;BMP280;74404;50.662;3.398;2024-02-04T12:55:41;101874.25;;;10.47
54026;BMP280;74404;50.662;3.398;2024-02-04T12:58:09;101861.00;;;10.47
54026;BMP280;74404;50.662;3.398;2024-02-04T13:00:37;101858.34;;;10.47
54026;BMP280;74404;50.662;3.398;2024-02-04T13:03:04;101858.34;;;10.47
54026;BMP280;74404;50.662;3.398;2024-02-04T13:05:30;101859.13;;;10.48
54026;BMP280;74404;50.662;3.398;2024-02-04T13:08:00;101843.19;;;10.48
54026;BMP280;74404;50.662;3.398;2024-02-04T13:10:34;101839.50;;;10.44
54026;BMP280;74404;50.662;3.398;2024-02-04T13:15:27;101844.81;;;10.49
54026;BMP280;74404;50.662;3.398;2024-02-04T13:17:53;101849.59;;;10.47
54026;BMP280;74404;50.662;3.398;2024-02-04T13:20:19;101842.44;;;10.52
54026;BMP280;74404;50.662;3.398;2024-02-04T13:22:45;101831.03;;;10.57
54026;BMP280;74404;50.662;3.398;2024-02-04T13:25:10;101834.47;;;10.57
54026;BMP280;74404;50.662;3.398;2024-02-04T13:27:36;101829.16;;;10.57
54026;BMP280;74404;50.662;3.398;2024-02-04T13:30:01;101844.06;;;10.58
54026;BMP280;74404;50.662;3.398;2024-02-04T13:32:27;101840.34;;;10.59
54026;BMP280;74404;50.662;3.398;2024-02-04T13:34:52;101836.88;;;10.59
54026;BMP280;74404;50.662;3.398;2024-02-04T13:37:18;101830.00;;;10.58
54026;BMP280;74404;50.662;3.398;2024-02-04T13:39:43;101828.66;;;10.55
54026;BMP280;74404;50.662;3.398;2024-02-04T13:42:09;101821.47;;;10.56
54026;BMP280;74404;50.662;3.398;2024-02-04T13:44:35;101826.78;;;10.56
54026;BMP280;74404;50.662;3.398;2024-02-04T13:47:00;101805.28;;;10.52
54026;BMP280;74404;50.662;3.398;2024-02-04T13:49:26;101819.91;;;10.55
54026;BMP280;74404;50.662;3.398;2024-02-04T13:51:52;101812.72;;;10.55
54026;BMP280;74404;50.662;3.398;2024-02-04T13:54:17;101820.69;;;10.55
54026;BMP280;74404;50.662;3.398;2024-02-04T13:56:44;101827.88;;;10.55
54026;BMP280;74404;50.662;3.398;2024-02-04T13:59:09;101816.69;;;10.53
54026;BMP280;74404;50.662;3.398;2024-02-04T14:01:35;101821.47;;;10.56
54026;BMP280;74404;50.662;3.398;2024-02-04T14:04:00;101825.22;;;10.55
54026;BMP280;74404;50.662;3.398;2024-02-04T14:06:26;101826.00;;;10.55
54026;BMP280;74404;50.662;3.398;2024-02-04T14:08:51;101826.00;;;10.55